sensor_id;sensor_type;location;lat;lon;timestamp;P1;durP1;ratioP1;P2;durP2;ratioP2
66585;SDS011;53444;45.822;16.092;2023-05-10T00:00:38;3.47;;;1.88;;
66585;SDS011;53444;45.822;16.092;2023-05-10T00:03:08;4.07;;;2.20;;
66585;SDS011;53444;45.822;16.092;2023-05-10T00:05:34;3.95;;;1.90;;
66585;SDS011;53444;45.822;16.092;2023-05-10T00:08:01;2.35;;;1.80;;
66585;SDS011;53444;45.822;16.092;2023-05-10T00:10:28;3.13;;;1.63;;
66585;SDS011;53444;45.822;16.092;2023-05-10T00:12:54;5.68;;;2.13;;
66585;SDS011;53444;45.822;16.092;2023-05-10T00:15:23;4.00;;;2.17;;
66585;SDS011;53444;45.822;16.092;2023-05-10T00:17:49;2.75;;;1.80;;
66585;SDS011;53444;45.822;16.092;2023-05-10T00:20:16;2.75;;;1.70;;
66585;SDS011;53444;45.822;16.092;2023-05-10T00:22:43;3.25;;;1.70;;
66585;SDS011;53444;45.822;16.092;2023-05-10T00:25:09;3.58;;;1.88;;
66585;SDS011;53444;45.822;16.092;2023-05-10T00:27:36;2.97;;;1.53;;
66585;SDS011;53444;45.822;16.092;2023-05-10T00:30:03;3.03;;;1.50;;
66585;SDS011;53444;45.822;16.092;2023-05-10T00:32:32;2.70;;;1.65;;
66585;SDS011;53444;45.822;16.092;2023-05-10T00:34:59;4.32;;;2.28;;
66585;SDS011;53444;45.822;16.092;2023-05-10T00:37:25;3.78;;;1.88;;
66585;SDS011;53444;45.822;16.092;2023-05-10T00:39:52;3.30;;;1.70;;
66585;SDS011;53444;45.822;16.092;2023-05-10T00:42:19;2.92;;;1.80;;
66585;SDS011;53444;45.822;16.092;2023-05-10T00:44:45;3.28;;;1.80;;
66585;SDS011;53444;45.822;16.092;2023-05-10T00:47:12;2.78;;;1.58;;
66585;SDS011;53444;45.822;16.092;2023-05-10T00:49:40;3.25;;;1.70;;
66585;SDS011;53444;45.822;16.092;2023-05-10T00:52:07;3.07;;;1.83;;
66585;SDS011;53444;45.822;16.092;2023-05-10T00:54:34;4.60;;;1.80;;
66585;SDS011;53444;45.822;16.092;2023-05-10T00:57:01;3.22;;;1.70;;
66585;SDS011;53444;45.822;16.092;2023-05-10T00:59:28;4.63;;;2.50;;
66585;SDS011;53444;45.822;16.092;2023-05-10T01:01:55;3.15;;;2.05;;
66585;SDS011;53444;45.822;16.092;2023-05-10T01:04:22;3.77;;;2.20;;
66585;SDS011;53444;45.822;16.092;2023-05-10T01:06:52;3.30;;;1.90;;
66585;SDS011;53444;45.822;16.092;2023-05-10T01:09:19;3.97;;;1.85;;
66585;SDS011;53444;45.822;16.092;2023-05-10T01:11:46;3.13;;;1.85;;
66585;SDS011;53444;45.822;16.092;2023-05-10T01:14:13;3.10;;;1.88;;
66585;SDS011;53444;45.822;16.092;2023-05-10T01:16:41;3.20;;;1.90;;
66585;SDS011;53444;45.822;16.092;2023-05-10T01:19:11;4.55;;;2.20;;
66585;SDS011;53444;45.822;16.092;2023-05-10T01:21:45;4.03;;;1.90;;
66585;SDS011;53444;45.822;16.092;2023-05-10T01:24:34;3.75;;;1.75;;
66585;SDS011;53444;45.822;16.092;2023-05-10T01:27:15;6.70;;;2.30;;
66585;SDS011;53444;45.822;16.092;2023-05-10T01:30:06;4.83;;;2.20;;
66585;SDS011;53444;45.822;16.092;2023-05-10T01:32:43;8.07;;;2.90;;
66585;SDS011;53444;45.822;16.092;2023-05-10T01:35:14;16.70;;;6.25;;
66585;SDS011;53444;45.822;16.092;2023-05-10T01:37:45;22.52;;;8.68;;
66585;SDS011;53444;45.822;16.092;2023-05-10T01:40:17;23.88;;;8.80;;
66585;SDS011;53444;45.822;16.092;2023-05-10T01:42:50;15.37;;;6.27;;
66585;SDS011;53444;45.822;16.092;2023-05-10T01:45:21;9.80;;;4.55;;
66585;SDS011;53444;45.822;16.092;2023-05-10T01:47:56;11.88;;;4.50;;
66585;SDS011;53444;45.822;16.092;2023-05-10T01:50:29;7.70;;;3.13;;
66585;SDS011;53444;45.822;16.092;2023-05-10T01:52:57;4.40;;;2.28;;
66585;SDS011;53444;45.822;16.092;2023-05-10T01:55:26;6.83;;;2.17;;
66585;SDS011;53444;45.822;16.092;2023-05-10T01:57:58;3.42;;;1.92;;
66585;SDS011;53444;45.822;16.092;2023-05-10T02:00:29;4.80;;;2.45;;
66585;SDS011;53444;45.822;16.092;2023-05-10T02:02:58;3.47;;;2.10;;
66585;SDS011;53444;45.822;16.092;2023-05-10T02:05:28;4.72;;;2.10;;
66585;SDS011;53444;45.822;16.092;2023-05-10T02:07:57;3.70;;;2.50;;
66585;SDS011;53444;45.822;16.092;2023-05-10T02:10:26;4.45;;;2.10;;
66585;SDS011;53444;45.822;16.092;2023-05-10T02:12:54;3.55;;;1.92;;
66585;SDS011;53444;45.822;16.092;2023-05-10T02:15:24;4.30;;;2.13;;
66585;SDS011;53444;45.822;16.092;2023-05-10T02:17:53;3.53;;;2.20;;
66585;SDS011;53444;45.822;16.092;2023-05-10T02:20:22;3.60;;;1.70;;
66585;SDS011;53444;45.822;16.092;2023-05-10T02:22:50;5.80;;;1.90;;
66585;SDS011;53444;45.822;16.092;2023-05-10T02:25:20;4.60;;;1.95;;
66585;SDS011;53444;45.822;16.092;2023-05-10T02:27:48;4.05;;;1.92;;
66585;SDS011;53444;45.822;16.092;2023-05-10T02:30:16;6.45;;;2.25;;
66585;SDS011;53444;45.822;16.092;2023-05-10T02:32:44;3.10;;;1.70;;
66585;SDS011;53444;45.822;16.092;2023-05-10T02:35:11;3.05;;;1.65;;
66585;SDS011;53444;45.822;16.092;2023-05-10T02:37:40;3.78;;;1.75;;
66585;SDS011;53444;45.822;16.092;2023-05-10T02:40:07;3.42;;;2.03;;
66585;SDS011;53444;45.822;16.092;2023-05-10T02:42:36;4.43;;;2.22;;
66585;SDS011;53444;45.822;16.092;2023-05-10T02:45:07;4.17;;;2.10;;
66585;SDS011;53444;45.822;16.092;2023-05-10T02:47:36;7.75;;;1.98;;
66585;SDS011;53444;45.822;16.092;2023-05-10T02:50:03;4.20;;;2.40;;
66585;SDS011;53444;45.822;16.092;2023-05-10T02:52:35;6.13;;;2.15;;
66585;SDS011;53444;45.822;16.092;2023-05-10T02:55:07;3.65;;;2.30;;
66585;SDS011;53444;45.822;16.092;2023-05-10T02:57:36;4.23;;;2.10;;
66585;SDS011;53444;45.822;16.092;2023-05-10T03:00:07;3.60;;;2.13;;
66585;SDS011;53444;45.822;16.092;2023-05-10T03:02:34;3.08;;;1.95;;
66585;SDS011;53444;45.822;16.092;2023-05-10T03:05:01;3.88;;;1.88;;
66585;SDS011;53444;45.822;16.092;2023-05-10T03:07:28;6.18;;;2.17;;
66585;SDS011;53444;45.822;16.092;2023-05-10T03:09:54;4.30;;;2.20;;
66585;SDS011;53444;45.822;16.092;2023-05-10T03:12:23;2.60;;;1.60;;
66585;SDS011;53444;45.822;16.092;2023-05-10T03:15:03;3.03;;;1.95;;
66585;SDS011;53444;45.822;16.092;2023-05-10T03:17:40;4.18;;;2.28;;
66585;SDS011;53444;45.822;16.092;2023-05-10T03:20:16;4.15;;;2.00;;
66585;SDS011;53444;45.822;16.092;2023-05-10T03:22:49;3.23;;;2.07;;
66585;SDS011;53444;45.822;16.092;2023-05-10T03:25:19;4.13;;;1.90;;
66585;SDS011;53444;45.822;16.092;2023-05-10T03:27:49;3.20;;;1.90;;
66585;SDS011;53444;45.822;16.092;2023-05-10T03:30:16;3.85;;;2.30;;
66585;SDS011;53444;45.822;16.092;2023-05-10T03:32:44;3.50;;;1.85;;
66585;SDS011;53444;45.822;16.092;2023-05-10T03:35:11;2.93;;;1.93;;
66585;SDS011;53444;45.822;16.092;2023-05-10T03:37:39;5.55;;;2.30;;
66585;SDS011;53444;45.822;16.092;2023-05-10T03:40:06;4.70;;;2.25;;
66585;SDS011;53444;45.822;16.092;2023-05-10T03:42:33;4.25;;;1.73;;
66585;SDS011;53444;45.822;16.092;2023-05-10T03:45:02;3.80;;;2.25;;
66585;SDS011;53444;45.822;16.092;2023-05-10T03:47:29;3.30;;;1.87;;
66585;SDS011;53444;45.822;16.092;2023-05-10T03:49:55;6.38;;;2.13;;
66585;SDS011;53444;45.822;16.092;2023-05-10T03:52:22;4.70;;;2.38;;
66585;SDS011;53444;45.822;16.092;2023-05-10T03:54:49;3.15;;;2.20;;
66585;SDS011;53444;45.822;16.092;2023-05-10T03:57:15;3.50;;;2.10;;
66585;SDS011;53444;45.822;16.092;2023-05-10T03:59:42;3.63;;;2.17;;
66585;SDS011;53444;45.822;16.092;2023-05-10T04:02:10;5.40;;;2.60;;
66585;SDS011;53444;45.822;16.092;2023-05-10T04:04:36;4.50;;;2.45;;
66585;SDS011;53444;45.822;16.092;2023-05-10T04:07:03;4.55;;;2.30;;
66585;SDS011;53444;45.822;16.092;2023-05-10T04:09:30;3.70;;;2.28;;
66585;SDS011;53444;45.822;16.092;2023-05-10T04:11:58;4.37;;;1.83;;
66585;SDS011;53444;45.822;16.092;2023-05-10T04:14:24;7.53;;;2.45;;
66585;SDS011;53444;45.822;16.092;2023-05-10T04:16:51;4.85;;;2.60;;
66585;SDS011;53444;45.822;16.092;2023-05-10T04:19:19;5.30;;;2.22;;
66585;SDS011;53444;45.822;16.092;2023-05-10T04:21:46;5.35;;;2.45;;
66585;SDS011;53444;45.822;16.092;2023-05-10T04:24:12;5.50;;;2.60;;
66585;SDS011;53444;45.822;16.092;2023-05-10T04:26:39;5.28;;;2.75;;
66585;SDS011;53444;45.822;16.092;2023-05-10T04:29:06;5.57;;;2.45;;
66585;SDS011;53444;45.822;16.092;2023-05-10T04:31:33;3.88;;;2.38;;
66585;SDS011;53444;45.822;16.092;2023-05-10T04:34:01;5.63;;;2.85;;
66585;SDS011;53444;45.822;16.092;2023-05-10T04:36:29;3.93;;;2.30;;
66585;SDS011;53444;45.822;16.092;2023-05-10T04:38:57;3.78;;;2.42;;
66585;SDS011;53444;45.822;16.092;2023-05-10T04:41:24;6.22;;;2.47;;
66585;SDS011;53444;45.822;16.092;2023-05-10T04:43:50;3.85;;;2.63;;
66585;SDS011;53444;45.822;16.092;2023-05-10T04:46:17;5.15;;;2.85;;
66585;SDS011;53444;45.822;16.092;2023-05-10T04:48:44;5.13;;;2.80;;
66585;SDS011;53444;45.822;16.092;2023-05-10T04:51:10;5.28;;;2.90;;
66585;SDS011;53444;45.822;16.092;2023-05-10T04:53:38;4.22;;;2.30;;
66585;SDS011;53444;45.822;16.092;2023-05-10T04:56:05;7.38;;;3.10;;
66585;SDS011;53444;45.822;16.092;2023-05-10T04:58:33;5.03;;;2.83;;
66585;SDS011;53444;45.822;16.092;2023-05-10T05:01:05;4.47;;;2.63;;
66585;SDS011;53444;45.822;16.092;2023-05-10T05:03:33;5.43;;;2.88;;
66585;SDS011;53444;45.822;16.092;2023-05-10T05:06:00;5.97;;;2.90;;
66585;SDS011;53444;45.822;16.092;2023-05-10T05:08:26;5.97;;;2.97;;
66585;SDS011;53444;45.822;16.092;2023-05-10T05:10:54;5.35;;;3.35;;
66585;SDS011;53444;45.822;16.092;2023-05-10T05:13:21;5.50;;;3.17;;
66585;SDS011;53444;45.822;16.092;2023-05-10T05:15:48;4.53;;;2.90;;
66585;SDS011;53444;45.822;16.092;2023-05-10T05:18:14;4.78;;;3.00;;
66585;SDS011;53444;45.822;16.092;2023-05-10T05:20:41;5.32;;;3.08;;
66585;SDS011;53444;45.822;16.092;2023-05-10T05:23:07;5.40;;;2.97;;
66585;SDS011;53444;45.822;16.092;2023-05-10T05:25:34;6.33;;;3.20;;
66585;SDS011;53444;45.822;16.092;2023-05-10T05:28:02;5.78;;;2.72;;
66585;SDS011;53444;45.822;16.092;2023-05-10T05:30:29;6.13;;;3.00;;
66585;SDS011;53444;45.822;16.092;2023-05-10T05:32:56;5.70;;;3.20;;
66585;SDS011;53444;45.822;16.092;2023-05-10T05:35:23;6.10;;;3.38;;
66585;SDS011;53444;45.822;16.092;2023-05-10T05:37:50;5.27;;;3.20;;
66585;SDS011;53444;45.822;16.092;2023-05-10T05:40:17;7.82;;;3.40;;
66585;SDS011;53444;45.822;16.092;2023-05-10T05:42:43;6.57;;;3.05;;
66585;SDS011;53444;45.822;16.092;2023-05-10T05:45:11;6.40;;;3.30;;
66585;SDS011;53444;45.822;16.092;2023-05-10T05:47:39;4.90;;;3.15;;
66585;SDS011;53444;45.822;16.092;2023-05-10T05:50:06;5.23;;;3.07;;
66585;SDS011;53444;45.822;16.092;2023-05-10T05:52:33;7.30;;;3.22;;
66585;SDS011;53444;45.822;16.092;2023-05-10T05:55:01;5.50;;;3.00;;
66585;SDS011;53444;45.822;16.092;2023-05-10T05:57:27;5.10;;;3.22;;
66585;SDS011;53444;45.822;16.092;2023-05-10T05:59:54;6.47;;;3.40;;
66585;SDS011;53444;45.822;16.092;2023-05-10T06:02:22;6.63;;;3.23;;
66585;SDS011;53444;45.822;16.092;2023-05-10T06:04:49;5.18;;;3.30;;
66585;SDS011;53444;45.822;16.092;2023-05-10T06:07:16;6.82;;;3.42;;
66585;SDS011;53444;45.822;16.092;2023-05-10T06:09:43;4.55;;;2.75;;
66585;SDS011;53444;45.822;16.092;2023-05-10T06:12:09;6.05;;;3.40;;
66585;SDS011;53444;45.822;16.092;2023-05-10T06:14:36;5.40;;;2.97;;
66585;SDS011;53444;45.822;16.092;2023-05-10T06:17:03;5.90;;;3.22;;
66585;SDS011;53444;45.822;16.092;2023-05-10T06:19:31;5.85;;;3.40;;
66585;SDS011;53444;45.822;16.092;2023-05-10T06:21:58;5.07;;;3.20;;
66585;SDS011;53444;45.822;16.092;2023-05-10T06:24:24;5.03;;;3.13;;
66585;SDS011;53444;45.822;16.092;2023-05-10T06:26:53;4.83;;;3.03;;
66585;SDS011;53444;45.822;16.092;2023-05-10T06:29:20;5.43;;;3.40;;
66585;SDS011;53444;45.822;16.092;2023-05-10T06:31:46;4.93;;;2.97;;
66585;SDS011;53444;45.822;16.092;2023-05-10T06:34:13;5.18;;;3.28;;
66585;SDS011;53444;45.822;16.092;2023-05-10T06:36:41;6.32;;;3.55;;
66585;SDS011;53444;45.822;16.092;2023-05-10T06:39:08;4.30;;;2.60;;
66585;SDS011;53444;45.822;16.092;2023-05-10T06:41:36;6.50;;;3.22;;
66585;SDS011;53444;45.822;16.092;2023-05-10T06:44:03;5.20;;;3.00;;
66585;SDS011;53444;45.822;16.092;2023-05-10T06:46:30;6.53;;;3.38;;
66585;SDS011;53444;45.822;16.092;2023-05-10T06:48:57;5.43;;;3.40;;
66585;SDS011;53444;45.822;16.092;2023-05-10T06:51:23;5.43;;;3.57;;
66585;SDS011;53444;45.822;16.092;2023-05-10T06:53:52;7.95;;;3.92;;
66585;SDS011;53444;45.822;16.092;2023-05-10T06:56:19;4.63;;;3.00;;
66585;SDS011;53444;45.822;16.092;2023-05-10T06:58:46;5.03;;;3.08;;
66585;SDS011;53444;45.822;16.092;2023-05-10T07:01:13;5.78;;;3.20;;
66585;SDS011;53444;45.822;16.092;2023-05-10T07:03:39;6.77;;;3.53;;
66585;SDS011;53444;45.822;16.092;2023-05-10T07:06:06;6.05;;;3.20;;
66585;SDS011;53444;45.822;16.092;2023-05-10T07:08:33;5.22;;;3.15;;
66585;SDS011;53444;45.822;16.092;2023-05-10T07:11:02;4.88;;;3.20;;
66585;SDS011;53444;45.822;16.092;2023-05-10T07:13:29;4.75;;;3.28;;
66585;SDS011;53444;45.822;16.092;2023-05-10T07:15:57;5.97;;;3.57;;
66585;SDS011;53444;45.822;16.092;2023-05-10T07:18:23;10.50;;;4.10;;
66585;SDS011;53444;45.822;16.092;2023-05-10T07:20:50;7.13;;;4.03;;
66585;SDS011;53444;45.822;16.092;2023-05-10T07:23:17;7.80;;;3.53;;
66585;SDS011;53444;45.822;16.092;2023-05-10T07:25:44;6.93;;;3.63;;
66585;SDS011;53444;45.822;16.092;2023-05-10T07:28:13;5.93;;;3.47;;
66585;SDS011;53444;45.822;16.092;2023-05-10T07:30:39;5.97;;;3.72;;
66585;SDS011;53444;45.822;16.092;2023-05-10T07:33:06;5.18;;;3.25;;
66585;SDS011;53444;45.822;16.092;2023-05-10T07:35:33;5.82;;;3.22;;
66585;SDS011;53444;45.822;16.092;2023-05-10T07:38:00;6.47;;;3.90;;
66585;SDS011;53444;45.822;16.092;2023-05-10T07:40:27;6.77;;;3.50;;
66585;SDS011;53444;45.822;16.092;2023-05-10T07:42:54;5.25;;;3.80;;
66585;SDS011;53444;45.822;16.092;2023-05-10T07:45:29;6.47;;;3.80;;
66585;SDS011;53444;45.822;16.092;2023-05-10T07:47:55;8.07;;;3.85;;
66585;SDS011;53444;45.822;16.092;2023-05-10T07:50:22;6.70;;;3.40;;
66585;SDS011;53444;45.822;16.092;2023-05-10T07:52:49;5.77;;;3.30;;
66585;SDS011;53444;45.822;16.092;2023-05-10T07:55:18;5.93;;;3.55;;
66585;SDS011;53444;45.822;16.092;2023-05-10T07:57:46;6.82;;;3.17;;
66585;SDS011;53444;45.822;16.092;2023-05-10T08:00:13;5.82;;;3.63;;
66585;SDS011;53444;45.822;16.092;2023-05-10T08:02:44;5.75;;;3.80;;
66585;SDS011;53444;45.822;16.092;2023-05-10T08:05:11;7.33;;;4.13;;
66585;SDS011;53444;45.822;16.092;2023-05-10T08:07:38;4.93;;;3.00;;
66585;SDS011;53444;45.822;16.092;2023-05-10T08:10:05;6.55;;;3.65;;
66585;SDS011;53444;45.822;16.092;2023-05-10T08:12:33;5.93;;;3.85;;
66585;SDS011;53444;45.822;16.092;2023-05-10T08:15:00;5.13;;;3.63;;
66585;SDS011;53444;45.822;16.092;2023-05-10T08:17:27;5.90;;;3.43;;
66585;SDS011;53444;45.822;16.092;2023-05-10T08:19:55;6.22;;;3.30;;
66585;SDS011;53444;45.822;16.092;2023-05-10T08:22:21;4.88;;;3.42;;
66585;SDS011;53444;45.822;16.092;2023-05-10T08:24:48;5.28;;;3.58;;
66585;SDS011;53444;45.822;16.092;2023-05-10T08:27:14;5.15;;;3.40;;
66585;SDS011;53444;45.822;16.092;2023-05-10T08:29:41;4.73;;;3.47;;
66585;SDS011;53444;45.822;16.092;2023-05-10T08:32:08;4.78;;;3.28;;
66585;SDS011;53444;45.822;16.092;2023-05-10T08:34:34;5.88;;;3.38;;
66585;SDS011;53444;45.822;16.092;2023-05-10T08:37:02;5.15;;;3.40;;
66585;SDS011;53444;45.822;16.092;2023-05-10T08:39:29;4.72;;;3.50;;
66585;SDS011;53444;45.822;16.092;2023-05-10T08:42:01;5.73;;;3.30;;
66585;SDS011;53444;45.822;16.092;2023-05-10T08:44:28;7.97;;;3.95;;
66585;SDS011;53444;45.822;16.092;2023-05-10T08:46:56;4.53;;;3.72;;
66585;SDS011;53444;45.822;16.092;2023-05-10T08:49:25;4.70;;;3.10;;
66585;SDS011;53444;45.822;16.092;2023-05-10T08:51:57;5.85;;;3.60;;
66585;SDS011;53444;45.822;16.092;2023-05-10T08:54:27;5.37;;;3.50;;
66585;SDS011;53444;45.822;16.092;2023-05-10T08:56:54;5.93;;;3.33;;
66585;SDS011;53444;45.822;16.092;2023-05-10T08:59:20;6.00;;;3.60;;
66585;SDS011;53444;45.822;16.092;2023-05-10T09:01:47;4.97;;;3.38;;
66585;SDS011;53444;45.822;16.092;2023-05-10T09:04:16;4.68;;;3.20;;
66585;SDS011;53444;45.822;16.092;2023-05-10T09:06:42;3.97;;;2.97;;
66585;SDS011;53444;45.822;16.092;2023-05-10T09:09:09;5.20;;;3.42;;
66585;SDS011;53444;45.822;16.092;2023-05-10T09:11:37;5.32;;;3.67;;
66585;SDS011;53444;45.822;16.092;2023-05-10T09:14:04;3.75;;;3.20;;
66585;SDS011;53444;45.822;16.092;2023-05-10T09:16:31;5.15;;;3.38;;
66585;SDS011;53444;45.822;16.092;2023-05-10T09:18:58;4.17;;;2.77;;
66585;SDS011;53444;45.822;16.092;2023-05-10T09:21:24;4.45;;;2.92;;
66585;SDS011;53444;45.822;16.092;2023-05-10T09:23:52;5.18;;;3.35;;
66585;SDS011;53444;45.822;16.092;2023-05-10T09:26:21;5.25;;;3.50;;
66585;SDS011;53444;45.822;16.092;2023-05-10T09:28:53;4.82;;;2.92;;
66585;SDS011;53444;45.822;16.092;2023-05-10T09:31:21;3.97;;;2.90;;
66585;SDS011;53444;45.822;16.092;2023-05-10T09:33:51;6.50;;;3.38;;
66585;SDS011;53444;45.822;16.092;2023-05-10T09:36:18;5.53;;;3.45;;
66585;SDS011;53444;45.822;16.092;2023-05-10T09:38:45;4.60;;;3.28;;
66585;SDS011;53444;45.822;16.092;2023-05-10T09:41:16;4.22;;;3.10;;
66585;SDS011;53444;45.822;16.092;2023-05-10T09:43:43;4.33;;;3.20;;
66585;SDS011;53444;45.822;16.092;2023-05-10T09:46:11;4.97;;;3.40;;
66585;SDS011;53444;45.822;16.092;2023-05-10T09:48:40;4.28;;;3.28;;
66585;SDS011;53444;45.822;16.092;2023-05-10T09:51:08;4.28;;;3.35;;
66585;SDS011;53444;45.822;16.092;2023-05-10T09:53:35;7.07;;;3.85;;
66585;SDS011;53444;45.822;16.092;2023-05-10T09:56:02;5.47;;;3.50;;
66585;SDS011;53444;45.822;16.092;2023-05-10T09:58:29;4.43;;;3.25;;
66585;SDS011;53444;45.822;16.092;2023-05-10T10:00:55;4.57;;;3.38;;
66585;SDS011;53444;45.822;16.092;2023-05-10T10:03:23;4.10;;;3.20;;
66585;SDS011;53444;45.822;16.092;2023-05-10T10:05:50;3.45;;;2.70;;
66585;SDS011;53444;45.822;16.092;2023-05-10T10:08:18;4.30;;;3.10;;
66585;SDS011;53444;45.822;16.092;2023-05-10T10:10:45;3.50;;;2.80;;
66585;SDS011;53444;45.822;16.092;2023-05-10T10:13:13;3.90;;;2.92;;
66585;SDS011;53444;45.822;16.092;2023-05-10T10:15:40;4.40;;;3.03;;
66585;SDS011;53444;45.822;16.092;2023-05-10T10:18:08;3.85;;;2.97;;
66585;SDS011;53444;45.822;16.092;2023-05-10T10:20:40;3.90;;;2.90;;
66585;SDS011;53444;45.822;16.092;2023-05-10T10:23:07;3.38;;;2.35;;
66585;SDS011;53444;45.822;16.092;2023-05-10T10:25:34;6.40;;;2.88;;
66585;SDS011;53444;45.822;16.092;2023-05-10T10:28:10;3.55;;;2.53;;
66585;SDS011;53444;45.822;16.092;2023-05-10T10:30:48;4.20;;;2.90;;
66585;SDS011;53444;45.822;16.092;2023-05-10T10:36:18;3.95;;;3.13;;
66585;SDS011;53444;45.822;16.092;2023-05-10T10:38:56;5.80;;;3.20;;
66585;SDS011;53444;45.822;16.092;2023-05-10T10:41:30;3.58;;;2.85;;
66585;SDS011;53444;45.822;16.092;2023-05-10T10:47:03;5.70;;;2.73;;
66585;SDS011;53444;45.822;16.092;2023-05-10T10:49:43;3.75;;;3.00;;
66585;SDS011;53444;45.822;16.092;2023-05-10T10:52:25;4.82;;;2.80;;
66585;SDS011;53444;45.822;16.092;2023-05-10T10:55:00;5.60;;;3.50;;
66585;SDS011;53444;45.822;16.092;2023-05-10T10:57:28;4.10;;;2.90;;
66585;SDS011;53444;45.822;16.092;2023-05-10T11:02:49;4.75;;;2.92;;
66585;SDS011;53444;45.822;16.092;2023-05-10T11:05:34;4.20;;;3.47;;
66585;SDS011;53444;45.822;16.092;2023-05-10T11:10:52;5.60;;;3.30;;
66585;SDS011;53444;45.822;16.092;2023-05-10T11:13:34;3.97;;;3.00;;
66585;SDS011;53444;45.822;16.092;2023-05-10T11:16:15;3.67;;;2.60;;
66585;SDS011;53444;45.822;16.092;2023-05-10T11:18:53;4.55;;;3.00;;
66585;SDS011;53444;45.822;16.092;2023-05-10T11:21:24;3.50;;;2.80;;
66585;SDS011;53444;45.822;16.092;2023-05-10T11:23:52;3.72;;;3.03;;
66585;SDS011;53444;45.822;16.092;2023-05-10T11:26:22;3.93;;;2.60;;
66585;SDS011;53444;45.822;16.092;2023-05-10T11:28:50;3.80;;;2.55;;
66585;SDS011;53444;45.822;16.092;2023-05-10T11:31:19;4.05;;;2.90;;
66585;SDS011;53444;45.822;16.092;2023-05-10T11:33:47;3.47;;;2.85;;
66585;SDS011;53444;45.822;16.092;2023-05-10T11:36:15;4.00;;;3.00;;
66585;SDS011;53444;45.822;16.092;2023-05-10T11:38:44;4.87;;;2.87;;
66585;SDS011;53444;45.822;16.092;2023-05-10T11:41:12;3.45;;;2.72;;
66585;SDS011;53444;45.822;16.092;2023-05-10T11:43:40;5.05;;;2.88;;
66585;SDS011;53444;45.822;16.092;2023-05-10T11:46:08;3.70;;;2.78;;
66585;SDS011;53444;45.822;16.092;2023-05-10T11:52:09;6.13;;;2.73;;
66585;SDS011;53444;45.822;16.092;2023-05-10T11:58:23;4.30;;;3.10;;
66585;SDS011;53444;45.822;16.092;2023-05-10T12:00:53;3.78;;;2.90;;
66585;SDS011;53444;45.822;16.092;2023-05-10T12:03:20;3.03;;;2.50;;
66585;SDS011;53444;45.822;16.092;2023-05-10T12:05:47;4.97;;;2.80;;
66585;SDS011;53444;45.822;16.092;2023-05-10T12:08:14;3.15;;;2.63;;
66585;SDS011;53444;45.822;16.092;2023-05-10T12:10:41;3.20;;;2.60;;
66585;SDS011;53444;45.822;16.092;2023-05-10T12:13:11;4.00;;;3.00;;
66585;SDS011;53444;45.822;16.092;2023-05-10T12:15:43;3.58;;;2.88;;
66585;SDS011;53444;45.822;16.092;2023-05-10T12:18:10;3.07;;;2.60;;
66585;SDS011;53444;45.822;16.092;2023-05-10T12:20:37;3.42;;;2.80;;
66585;SDS011;53444;45.822;16.092;2023-05-10T12:23:04;4.63;;;2.80;;
66585;SDS011;53444;45.822;16.092;2023-05-10T12:25:32;3.08;;;2.60;;
66585;SDS011;53444;45.822;16.092;2023-05-10T12:28:00;3.20;;;2.50;;
66585;SDS011;53444;45.822;16.092;2023-05-10T12:30:31;3.87;;;2.47;;
66585;SDS011;53444;45.822;16.092;2023-05-10T12:33:10;3.33;;;2.50;;
66585;SDS011;53444;45.822;16.092;2023-05-10T12:35:43;4.10;;;2.90;;
66585;SDS011;53444;45.822;16.092;2023-05-10T12:38:24;3.42;;;2.60;;
66585;SDS011;53444;45.822;16.092;2023-05-10T12:40:56;4.85;;;3.08;;
66585;SDS011;53444;45.822;16.092;2023-05-10T12:43:23;3.03;;;2.60;;
66585;SDS011;53444;45.822;16.092;2023-05-10T12:45:50;5.45;;;2.55;;
66585;SDS011;53444;45.822;16.092;2023-05-10T12:48:18;3.90;;;2.83;;
66585;SDS011;53444;45.822;16.092;2023-05-10T12:50:45;3.40;;;2.70;;
66585;SDS011;53444;45.822;16.092;2023-05-10T12:53:12;4.75;;;2.95;;
66585;SDS011;53444;45.822;16.092;2023-05-10T12:55:40;2.93;;;2.30;;
66585;SDS011;53444;45.822;16.092;2023-05-10T12:58:07;2.97;;;2.38;;
66585;SDS011;53444;45.822;16.092;2023-05-10T13:00:33;3.08;;;2.17;;
66585;SDS011;53444;45.822;16.092;2023-05-10T13:03:02;3.25;;;2.13;;
66585;SDS011;53444;45.822;16.092;2023-05-10T13:05:31;3.20;;;2.45;;
66585;SDS011;53444;45.822;16.092;2023-05-10T13:07:58;3.60;;;2.37;;
66585;SDS011;53444;45.822;16.092;2023-05-10T13:10:25;3.70;;;2.50;;
66585;SDS011;53444;45.822;16.092;2023-05-10T13:12:51;4.45;;;2.55;;
66585;SDS011;53444;45.822;16.092;2023-05-10T13:15:18;3.33;;;2.40;;
66585;SDS011;53444;45.822;16.092;2023-05-10T13:17:45;2.70;;;2.25;;
66585;SDS011;53444;45.822;16.092;2023-05-10T13:20:11;3.27;;;2.50;;
66585;SDS011;53444;45.822;16.092;2023-05-10T13:22:40;3.17;;;2.40;;
66585;SDS011;53444;45.822;16.092;2023-05-10T13:25:07;3.45;;;2.40;;
66585;SDS011;53444;45.822;16.092;2023-05-10T13:27:34;3.45;;;2.47;;
66585;SDS011;53444;45.822;16.092;2023-05-10T13:30:01;2.95;;;2.38;;
66585;SDS011;53444;45.822;16.092;2023-05-10T13:32:28;3.33;;;2.50;;
66585;SDS011;53444;45.822;16.092;2023-05-10T13:34:54;3.13;;;2.35;;
66585;SDS011;53444;45.822;16.092;2023-05-10T13:37:21;3.78;;;2.53;;
66585;SDS011;53444;45.822;16.092;2023-05-10T13:39:50;3.30;;;2.20;;
66585;SDS011;53444;45.822;16.092;2023-05-10T13:42:16;3.17;;;2.65;;
66585;SDS011;53444;45.822;16.092;2023-05-10T13:44:43;3.37;;;2.23;;
66585;SDS011;53444;45.822;16.092;2023-05-10T13:47:10;2.72;;;2.42;;
66585;SDS011;53444;45.822;16.092;2023-05-10T13:49:37;3.25;;;2.50;;
66585;SDS011;53444;45.822;16.092;2023-05-10T13:52:03;2.75;;;2.30;;
66585;SDS011;53444;45.822;16.092;2023-05-10T13:54:31;4.47;;;2.95;;
66585;SDS011;53444;45.822;16.092;2023-05-10T13:57:00;2.87;;;2.17;;
66585;SDS011;53444;45.822;16.092;2023-05-10T13:59:26;3.63;;;2.67;;
66585;SDS011;53444;45.822;16.092;2023-05-10T14:01:53;3.15;;;2.38;;
66585;SDS011;53444;45.822;16.092;2023-05-10T14:04:20;3.38;;;2.50;;
66585;SDS011;53444;45.822;16.092;2023-05-10T14:06:46;3.40;;;2.40;;
66585;SDS011;53444;45.822;16.092;2023-05-10T14:09:13;3.67;;;2.40;;
66585;SDS011;53444;45.822;16.092;2023-05-10T14:11:40;3.45;;;2.70;;
66585;SDS011;53444;45.822;16.092;2023-05-10T14:14:09;2.92;;;2.60;;
66585;SDS011;53444;45.822;16.092;2023-05-10T14:16:36;4.05;;;2.35;;
66585;SDS011;53444;45.822;16.092;2023-05-10T14:19:03;2.95;;;2.40;;
66585;SDS011;53444;45.822;16.092;2023-05-10T14:21:29;3.10;;;2.50;;
66585;SDS011;53444;45.822;16.092;2023-05-10T14:23:56;4.20;;;2.88;;
66585;SDS011;53444;45.822;16.092;2023-05-10T14:26:23;4.07;;;3.05;;
66585;SDS011;53444;45.822;16.092;2023-05-10T14:28:49;4.18;;;2.83;;
66585;SDS011;53444;45.822;16.092;2023-05-10T14:31:17;2.95;;;2.50;;
66585;SDS011;53444;45.822;16.092;2023-05-10T14:33:45;4.30;;;2.97;;
66585;SDS011;53444;45.822;16.092;2023-05-10T14:36:12;3.67;;;2.72;;
66585;SDS011;53444;45.822;16.092;2023-05-10T14:38:38;3.95;;;2.60;;
66585;SDS011;53444;45.822;16.092;2023-05-10T14:41:05;2.85;;;2.30;;
66585;SDS011;53444;45.822;16.092;2023-05-10T14:43:32;3.70;;;2.65;;
66585;SDS011;53444;45.822;16.092;2023-05-10T14:45:59;3.43;;;2.90;;
66585;SDS011;53444;45.822;16.092;2023-05-10T14:48:27;3.35;;;2.40;;
66585;SDS011;53444;45.822;16.092;2023-05-10T14:50:54;3.58;;;2.90;;
66585;SDS011;53444;45.822;16.092;2023-05-10T14:53:20;5.55;;;2.50;;
66585;SDS011;53444;45.822;16.092;2023-05-10T14:55:47;4.65;;;3.00;;
66585;SDS011;53444;45.822;16.092;2023-05-10T14:58:14;3.73;;;2.83;;